sensor_id;sensor_type;location;lat;lon;timestamp;P1;durP1;ratioP1;P2;durP2;ratioP2
21095;SDS011;10706;49.036;12.112;2024-03-29T00:00:42;4.50;;;2.17;;
21095;SDS011;10706;49.036;12.112;2024-03-29T00:03:09;5.17;;;1.90;;
21095;SDS011;10706;49.036;12.112;2024-03-29T00:05:35;3.23;;;1.70;;
21095;SDS011;10706;49.036;12.112;2024-03-29T00:08:05;8.20;;;2.10;;
21095;SDS011;10706;49.036;12.112;2024-03-29T00:10:31;3.93;;;1.83;;
21095;SDS011;10706;49.036;12.112;2024-03-29T00:12:58;3.07;;;1.90;;
21095;SDS011;10706;49.036;12.112;2024-03-29T00:15:24;2.73;;;1.83;;
21095;SDS011;10706;49.036;12.112;2024-03-29T00:17:50;5.07;;;2.10;;
21095;SDS011;10706;49.036;12.112;2024-03-29T00:20:16;4.43;;;1.87;;
21095;SDS011;10706;49.036;12.112;2024-03-29T00:22:42;7.67;;;2.23;;
21095;SDS011;10706;49.036;12.112;2024-03-29T00:25:09;3.37;;;1.70;;
21095;SDS011;10706;49.036;12.112;2024-03-29T00:27:35;4.10;;;1.80;;
21095;SDS011;10706;49.036;12.112;2024-03-29T00:30:01;2.83;;;2.00;;
21095;SDS011;10706;49.036;12.112;2024-03-29T00:32:27;3.23;;;1.60;;
21095;SDS011;10706;49.036;12.112;2024-03-29T00:34:53;4.87;;;2.33;;
21095;SDS011;10706;49.036;12.112;2024-03-29T00:37:20;4.37;;;2.13;;
21095;SDS011;10706;49.036;12.112;2024-03-29T00:39:47;1.80;;;1.67;;
21095;SDS011;10706;49.036;12.112;2024-03-29T00:42:13;4.20;;;2.00;;
21095;SDS011;10706;49.036;12.112;2024-03-29T00:44:41;5.47;;;2.70;;
21095;SDS011;10706;49.036;12.112;2024-03-29T00:47:07;3.47;;;1.93;;
21095;SDS011;10706;49.036;12.112;2024-03-29T00:49:34;5.10;;;2.30;;
21095;SDS011;10706;49.036;12.112;2024-03-29T00:52:01;1.97;;;1.50;;
21095;SDS011;10706;49.036;12.112;2024-03-29T00:54:28;4.40;;;1.77;;
21095;SDS011;10706;49.036;12.112;2024-03-29T00:56:55;3.57;;;1.83;;
21095;SDS011;10706;49.036;12.112;2024-03-29T00:59:21;1.53;;;1.43;;
21095;SDS011;10706;49.036;12.112;2024-03-29T01:01:47;5.77;;;1.87;;
21095;SDS011;10706;49.036;12.112;2024-03-29T01:04:14;3.30;;;2.03;;
21095;SDS011;10706;49.036;12.112;2024-03-29T01:06:41;7.53;;;2.33;;
21095;SDS011;10706;49.036;12.112;2024-03-29T01:09:07;3.63;;;2.13;;
21095;SDS011;10706;49.036;12.112;2024-03-29T01:11:36;5.13;;;2.00;;
21095;SDS011;10706;49.036;12.112;2024-03-29T01:14:03;3.33;;;1.90;;
21095;SDS011;10706;49.036;12.112;2024-03-29T01:16:30;3.43;;;1.80;;
21095;SDS011;10706;49.036;12.112;2024-03-29T01:18:59;5.33;;;2.20;;
21095;SDS011;10706;49.036;12.112;2024-03-29T01:21:25;3.33;;;1.77;;
21095;SDS011;10706;49.036;12.112;2024-03-29T01:23:51;4.30;;;2.10;;
21095;SDS011;10706;49.036;12.112;2024-03-29T01:26:18;4.70;;;1.90;;
21095;SDS011;10706;49.036;12.112;2024-03-29T01:28:44;3.57;;;1.90;;
21095;SDS011;10706;49.036;12.112;2024-03-29T01:31:10;2.93;;;1.63;;
21095;SDS011;10706;49.036;12.112;2024-03-29T01:33:39;5.73;;;1.83;;
21095;SDS011;10706;49.036;12.112;2024-03-29T01:36:06;1.50;;;1.40;;
21095;SDS011;10706;49.036;12.112;2024-03-29T01:38:33;2.80;;;1.67;;
21095;SDS011;10706;49.036;12.112;2024-03-29T01:40:59;3.83;;;2.33;;
21095;SDS011;10706;49.036;12.112;2024-03-29T01:43:25;3.23;;;1.83;;
21095;SDS011;10706;49.036;12.112;2024-03-29T01:45:53;3.30;;;2.20;;
21095;SDS011;10706;49.036;12.112;2024-03-29T01:48:21;2.60;;;1.77;;
21095;SDS011;10706;49.036;12.112;2024-03-29T01:50:52;2.67;;;1.77;;
21095;SDS011;10706;49.036;12.112;2024-03-29T01:53:21;5.37;;;2.00;;
21095;SDS011;10706;49.036;12.112;2024-03-29T01:55:49;2.70;;;1.60;;
21095;SDS011;10706;49.036;12.112;2024-03-29T01:58:16;2.57;;;1.60;;
21095;SDS011;10706;49.036;12.112;2024-03-29T02:00:44;3.47;;;1.70;;
21095;SDS011;10706;49.036;12.112;2024-03-29T02:03:19;3.43;;;1.73;;
21095;SDS011;10706;49.036;12.112;2024-03-29T02:05:49;4.57;;;2.07;;
21095;SDS011;10706;49.036;12.112;2024-03-29T02:08:15;2.47;;;1.57;;
21095;SDS011;10706;49.036;12.112;2024-03-29T02:10:42;2.83;;;2.00;;
21095;SDS011;10706;49.036;12.112;2024-03-29T02:13:08;4.07;;;1.80;;
21095;SDS011;10706;49.036;12.112;2024-03-29T02:15:35;4.67;;;1.80;;
21095;SDS011;10706;49.036;12.112;2024-03-29T02:18:01;2.23;;;1.83;;
21095;SDS011;10706;49.036;12.112;2024-03-29T02:20:27;5.03;;;2.00;;
21095;SDS011;10706;49.036;12.112;2024-03-29T02:22:55;1.70;;;1.40;;
21095;SDS011;10706;49.036;12.112;2024-03-29T02:25:33;2.97;;;1.57;;
21095;SDS011;10706;49.036;12.112;2024-03-29T02:27:59;1.63;;;1.53;;
21095;SDS011;10706;49.036;12.112;2024-03-29T02:30:30;2.13;;;1.50;;
21095;SDS011;10706;49.036;12.112;2024-03-29T02:32:57;1.93;;;1.53;;
21095;SDS011;10706;49.036;12.112;2024-03-29T02:35:24;2.67;;;1.30;;
21095;SDS011;10706;49.036;12.112;2024-03-29T02:37:50;4.77;;;1.67;;
21095;SDS011;10706;49.036;12.112;2024-03-29T02:40:17;1.63;;;1.43;;
21095;SDS011;10706;49.036;12.112;2024-03-29T02:42:43;2.13;;;1.70;;
21095;SDS011;10706;49.036;12.112;2024-03-29T02:45:10;3.23;;;1.80;;
21095;SDS011;10706;49.036;12.112;2024-03-29T02:47:36;3.03;;;1.40;;
21095;SDS011;10706;49.036;12.112;2024-03-29T02:50:02;3.10;;;1.40;;
21095;SDS011;10706;49.036;12.112;2024-03-29T02:52:28;3.20;;;1.50;;
21095;SDS011;10706;49.036;12.112;2024-03-29T02:54:54;2.63;;;1.57;;
21095;SDS011;10706;49.036;12.112;2024-03-29T02:57:20;2.80;;;1.50;;
21095;SDS011;10706;49.036;12.112;2024-03-29T02:59:46;2.77;;;1.53;;
21095;SDS011;10706;49.036;12.112;2024-03-29T03:02:12;3.20;;;1.50;;
21095;SDS011;10706;49.036;12.112;2024-03-29T03:04:38;2.10;;;1.30;;
21095;SDS011;10706;49.036;12.112;2024-03-29T03:07:04;1.97;;;1.37;;
21095;SDS011;10706;49.036;12.112;2024-03-29T03:09:49;1.70;;;1.40;;
21095;SDS011;10706;49.036;12.112;2024-03-29T03:12:34;2.03;;;1.40;;
21095;SDS011;10706;49.036;12.112;2024-03-29T03:15:00;2.13;;;1.30;;
21095;SDS011;10706;49.036;12.112;2024-03-29T03:17:26;1.57;;;1.23;;
21095;SDS011;10706;49.036;12.112;2024-03-29T03:19:52;1.20;;;1.10;;
21095;SDS011;10706;49.036;12.112;2024-03-29T03:22:19;3.80;;;1.60;;
21095;SDS011;10706;49.036;12.112;2024-03-29T03:24:45;2.13;;;1.53;;
21095;SDS011;10706;49.036;12.112;2024-03-29T03:27:11;4.23;;;1.40;;
21095;SDS011;10706;49.036;12.112;2024-03-29T03:29:37;1.63;;;1.50;;
21095;SDS011;10706;49.036;12.112;2024-03-29T03:32:04;2.07;;;1.40;;
21095;SDS011;10706;49.036;12.112;2024-03-29T03:34:31;1.83;;;1.30;;
21095;SDS011;10706;49.036;12.112;2024-03-29T03:36:58;1.30;;;1.20;;
21095;SDS011;10706;49.036;12.112;2024-03-29T03:39:24;4.23;;;1.70;;
21095;SDS011;10706;49.036;12.112;2024-03-29T03:41:50;1.40;;;1.30;;
21095;SDS011;10706;49.036;12.112;2024-03-29T03:44:16;2.10;;;1.53;;
21095;SDS011;10706;49.036;12.112;2024-03-29T03:46:43;4.53;;;1.60;;
21095;SDS011;10706;49.036;12.112;2024-03-29T03:49:09;3.17;;;1.70;;
21095;SDS011;10706;49.036;12.112;2024-03-29T03:51:35;4.17;;;1.50;;
21095;SDS011;10706;49.036;12.112;2024-03-29T03:54:01;1.83;;;1.53;;
21095;SDS011;10706;49.036;12.112;2024-03-29T03:56:27;2.87;;;1.37;;
21095;SDS011;10706;49.036;12.112;2024-03-29T03:58:53;1.60;;;1.50;;
21095;SDS011;10706;49.036;12.112;2024-03-29T04:01:20;2.57;;;1.67;;
21095;SDS011;10706;49.036;12.112;2024-03-29T04:03:46;4.27;;;1.60;;
21095;SDS011;10706;49.036;12.112;2024-03-29T04:06:12;2.30;;;1.60;;
21095;SDS011;10706;49.036;12.112;2024-03-29T04:08:38;3.30;;;1.80;;
21095;SDS011;10706;49.036;12.112;2024-03-29T04:11:04;2.17;;;1.57;;
21095;SDS011;10706;49.036;12.112;2024-03-29T04:13:30;1.67;;;1.40;;
21095;SDS011;10706;49.036;12.112;2024-03-29T04:16:03;5.30;;;2.40;;
21095;SDS011;10706;49.036;12.112;2024-03-29T04:18:33;4.63;;;1.87;;
21095;SDS011;10706;49.036;12.112;2024-03-29T04:21:00;4.00;;;1.90;;
21095;SDS011;10706;49.036;12.112;2024-03-29T04:23:27;9.57;;;1.80;;
21095;SDS011;10706;49.036;12.112;2024-03-29T04:25:54;4.27;;;1.77;;
21095;SDS011;10706;49.036;12.112;2024-03-29T04:28:21;1.63;;;1.50;;
21095;SDS011;10706;49.036;12.112;2024-03-29T04:30:54;3.00;;;1.63;;
21095;SDS011;10706;49.036;12.112;2024-03-29T04:33:25;2.47;;;1.37;;
21095;SDS011;10706;49.036;12.112;2024-03-29T04:35:55;6.00;;;2.10;;
21095;SDS011;10706;49.036;12.112;2024-03-29T04:38:27;1.73;;;1.40;;
21095;SDS011;10706;49.036;12.112;2024-03-29T04:40:54;3.23;;;1.70;;
21095;SDS011;10706;49.036;12.112;2024-03-29T04:43:22;3.50;;;2.07;;
21095;SDS011;10706;49.036;12.112;2024-03-29T04:45:49;1.43;;;1.33;;
21095;SDS011;10706;49.036;12.112;2024-03-29T04:48:15;2.70;;;1.67;;
21095;SDS011;10706;49.036;12.112;2024-03-29T04:50:41;2.83;;;1.80;;
21095;SDS011;10706;49.036;12.112;2024-03-29T04:53:07;2.03;;;1.60;;
21095;SDS011;10706;49.036;12.112;2024-03-29T04:55:34;2.83;;;1.90;;
21095;SDS011;10706;49.036;12.112;2024-03-29T04:58:04;4.13;;;1.90;;
21095;SDS011;10706;49.036;12.112;2024-03-29T05:00:30;2.07;;;1.43;;
21095;SDS011;10706;49.036;12.112;2024-03-29T05:02:56;2.90;;;1.83;;
21095;SDS011;10706;49.036;12.112;2024-03-29T05:05:22;1.67;;;1.57;;
21095;SDS011;10706;49.036;12.112;2024-03-29T05:07:48;2.53;;;1.83;;
21095;SDS011;10706;49.036;12.112;2024-03-29T05:10:14;2.97;;;1.60;;
21095;SDS011;10706;49.036;12.112;2024-03-29T05:12:41;3.80;;;1.67;;
21095;SDS011;10706;49.036;12.112;2024-03-29T05:15:07;5.27;;;1.77;;
21095;SDS011;10706;49.036;12.112;2024-03-29T05:17:34;4.37;;;1.80;;
21095;SDS011;10706;49.036;12.112;2024-03-29T05:20:01;2.20;;;1.50;;
21095;SDS011;10706;49.036;12.112;2024-03-29T05:22:27;3.23;;;1.80;;
21095;SDS011;10706;49.036;12.112;2024-03-29T05:24:53;3.53;;;1.90;;
21095;SDS011;10706;49.036;12.112;2024-03-29T05:27:19;3.00;;;1.90;;
21095;SDS011;10706;49.036;12.112;2024-03-29T05:29:46;5.13;;;2.07;;
21095;SDS011;10706;49.036;12.112;2024-03-29T05:32:12;2.97;;;1.63;;
21095;SDS011;10706;49.036;12.112;2024-03-29T05:34:38;4.63;;;2.33;;
21095;SDS011;10706;49.036;12.112;2024-03-29T05:37:04;3.67;;;1.77;;
21095;SDS011;10706;49.036;12.112;2024-03-29T05:39:30;2.87;;;1.97;;
21095;SDS011;10706;49.036;12.112;2024-03-29T05:41:56;2.87;;;2.00;;
21095;SDS011;10706;49.036;12.112;2024-03-29T05:44:23;4.37;;;1.90;;
21095;SDS011;10706;49.036;12.112;2024-03-29T05:46:49;2.80;;;1.90;;
21095;SDS011;10706;49.036;12.112;2024-03-29T05:49:15;3.23;;;1.70;;
21095;SDS011;10706;49.036;12.112;2024-03-29T05:51:41;4.83;;;2.37;;
21095;SDS011;10706;49.036;12.112;2024-03-29T05:54:08;4.90;;;2.10;;
21095;SDS011;10706;49.036;12.112;2024-03-29T05:56:34;5.60;;;2.10;;
21095;SDS011;10706;49.036;12.112;2024-03-29T05:59:00;1.63;;;1.50;;
21095;SDS011;10706;49.036;12.112;2024-03-29T06:01:26;1.10;;;1.10;;
21095;SDS011;10706;49.036;12.112;2024-03-29T06:03:52;1.80;;;1.43;;
21095;SDS011;10706;49.036;12.112;2024-03-29T06:06:19;3.23;;;1.90;;
21095;SDS011;10706;49.036;12.112;2024-03-29T06:08:49;6.47;;;1.80;;
21095;SDS011;10706;49.036;12.112;2024-03-29T06:11:18;3.80;;;1.90;;
21095;SDS011;10706;49.036;12.112;2024-03-29T06:13:44;2.17;;;1.60;;
21095;SDS011;10706;49.036;12.112;2024-03-29T06:16:23;3.93;;;1.70;;
21095;SDS011;10706;49.036;12.112;2024-03-29T06:19:09;2.77;;;1.97;;
21095;SDS011;10706;49.036;12.112;2024-03-29T06:21:36;3.63;;;2.00;;
21095;SDS011;10706;49.036;12.112;2024-03-29T06:24:05;3.63;;;1.93;;
21095;SDS011;10706;49.036;12.112;2024-03-29T06:26:33;8.00;;;2.00;;
21095;SDS011;10706;49.036;12.112;2024-03-29T06:29:00;5.40;;;2.20;;
21095;SDS011;10706;49.036;12.112;2024-03-29T06:31:26;3.77;;;2.00;;
21095;SDS011;10706;49.036;12.112;2024-03-29T06:33:53;5.80;;;2.10;;
21095;SDS011;10706;49.036;12.112;2024-03-29T06:36:19;6.70;;;1.90;;
21095;SDS011;10706;49.036;12.112;2024-03-29T06:38:45;3.87;;;2.23;;
21095;SDS011;10706;49.036;12.112;2024-03-29T06:41:11;2.97;;;1.73;;
21095;SDS011;10706;49.036;12.112;2024-03-29T06:43:40;2.90;;;1.97;;
21095;SDS011;10706;49.036;12.112;2024-03-29T06:46:09;3.10;;;1.80;;
21095;SDS011;10706;49.036;12.112;2024-03-29T06:48:35;3.50;;;1.67;;
21095;SDS011;10706;49.036;12.112;2024-03-29T06:51:02;6.03;;;2.07;;
21095;SDS011;10706;49.036;12.112;2024-03-29T06:53:29;3.90;;;1.50;;
21095;SDS011;10706;49.036;12.112;2024-03-29T06:55:55;3.03;;;1.50;;
21095;SDS011;10706;49.036;12.112;2024-03-29T06:58:22;2.90;;;1.77;;
21095;SDS011;10706;49.036;12.112;2024-03-29T07:00:48;4.63;;;1.73;;
21095;SDS011;10706;49.036;12.112;2024-03-29T07:03:15;5.97;;;2.03;;
21095;SDS011;10706;49.036;12.112;2024-03-29T07:05:43;4.20;;;1.90;;
21095;SDS011;10706;49.036;12.112;2024-03-29T07:08:10;4.23;;;1.90;;
21095;SDS011;10706;49.036;12.112;2024-03-29T07:10:37;3.83;;;1.70;;
21095;SDS011;10706;49.036;12.112;2024-03-29T07:13:03;1.53;;;1.43;;
21095;SDS011;10706;49.036;12.112;2024-03-29T07:15:30;3.37;;;1.73;;
21095;SDS011;10706;49.036;12.112;2024-03-29T07:17:56;2.43;;;1.60;;
21095;SDS011;10706;49.036;12.112;2024-03-29T07:20:23;5.13;;;1.60;;
21095;SDS011;10706;49.036;12.112;2024-03-29T07:22:50;5.30;;;2.07;;
21095;SDS011;10706;49.036;12.112;2024-03-29T07:25:16;4.33;;;1.90;;
21095;SDS011;10706;49.036;12.112;2024-03-29T07:27:42;5.03;;;2.30;;
21095;SDS011;10706;49.036;12.112;2024-03-29T07:30:09;2.33;;;1.60;;
21095;SDS011;10706;49.036;12.112;2024-03-29T07:32:36;4.03;;;1.93;;
21095;SDS011;10706;49.036;12.112;2024-03-29T07:35:02;2.13;;;1.50;;
21095;SDS011;10706;49.036;12.112;2024-03-29T07:37:29;5.53;;;1.83;;
21095;SDS011;10706;49.036;12.112;2024-03-29T07:39:55;4.27;;;1.70;;
21095;SDS011;10706;49.036;12.112;2024-03-29T07:42:21;4.37;;;1.83;;
21095;SDS011;10706;49.036;12.112;2024-03-29T07:44:47;3.50;;;1.90;;
21095;SDS011;10706;49.036;12.112;2024-03-29T07:47:13;2.77;;;1.73;;
21095;SDS011;10706;49.036;12.112;2024-03-29T07:49:39;4.10;;;1.70;;
21095;SDS011;10706;49.036;12.112;2024-03-29T07:52:05;4.30;;;1.80;;
21095;SDS011;10706;49.036;12.112;2024-03-29T07:54:33;4.10;;;1.90;;
21095;SDS011;10706;49.036;12.112;2024-03-29T07:57:00;4.80;;;1.77;;
21095;SDS011;10706;49.036;12.112;2024-03-29T07:59:27;6.63;;;2.07;;
21095;SDS011;10706;49.036;12.112;2024-03-29T08:01:53;2.80;;;1.50;;
21095;SDS011;10706;49.036;12.112;2024-03-29T08:04:23;2.47;;;1.63;;
21095;SDS011;10706;49.036;12.112;2024-03-29T08:06:51;4.70;;;1.70;;
21095;SDS011;10706;49.036;12.112;2024-03-29T08:09:17;3.90;;;1.90;;
21095;SDS011;10706;49.036;12.112;2024-03-29T08:11:43;3.90;;;1.63;;
21095;SDS011;10706;49.036;12.112;2024-03-29T08:14:09;4.47;;;1.70;;
21095;SDS011;10706;49.036;12.112;2024-03-29T08:16:35;2.73;;;1.67;;
21095;SDS011;10706;49.036;12.112;2024-03-29T08:19:01;3.20;;;1.70;;
21095;SDS011;10706;49.036;12.112;2024-03-29T08:21:28;4.40;;;1.80;;
21095;SDS011;10706;49.036;12.112;2024-03-29T08:23:54;3.50;;;1.90;;
21095;SDS011;10706;49.036;12.112;2024-03-29T08:26:21;2.70;;;1.43;;
21095;SDS011;10706;49.036;12.112;2024-03-29T08:28:47;3.00;;;2.00;;
21095;SDS011;10706;49.036;12.112;2024-03-29T08:31:14;2.87;;;1.47;;
21095;SDS011;10706;49.036;12.112;2024-03-29T08:33:40;4.60;;;2.07;;
21095;SDS011;10706;49.036;12.112;2024-03-29T08:36:08;4.83;;;2.00;;
21095;SDS011;10706;49.036;12.112;2024-03-29T08:38:36;3.27;;;1.20;;
21095;SDS011;10706;49.036;12.112;2024-03-29T08:41:06;2.63;;;1.60;;
21095;SDS011;10706;49.036;12.112;2024-03-29T08:43:32;3.83;;;1.70;;
21095;SDS011;10706;49.036;12.112;2024-03-29T08:45:59;3.47;;;1.70;;
21095;SDS011;10706;49.036;12.112;2024-03-29T08:48:26;4.00;;;1.70;;
21095;SDS011;10706;49.036;12.112;2024-03-29T08:50:52;4.47;;;1.63;;
21095;SDS011;10706;49.036;12.112;2024-03-29T08:53:18;2.35;;;1.58;;
21095;SDS011;10706;49.036;12.112;2024-03-29T08:55:46;4.80;;;1.73;;
21095;SDS011;10706;49.036;12.112;2024-03-29T08:58:16;5.63;;;1.60;;
21095;SDS011;10706;49.036;12.112;2024-03-29T09:00:43;3.50;;;1.60;;
21095;SDS011;10706;49.036;12.112;2024-03-29T09:03:17;2.60;;;1.50;;
21095;SDS011;10706;49.036;12.112;2024-03-29T09:05:43;2.20;;;1.30;;
21095;SDS011;10706;49.036;12.112;2024-03-29T09:08:09;4.57;;;1.90;;
21095;SDS011;10706;49.036;12.112;2024-03-29T09:10:35;5.18;;;2.10;;
21095;SDS011;10706;49.036;12.112;2024-03-29T09:13:01;4.53;;;1.55;;
21095;SDS011;10706;49.036;12.112;2024-03-29T09:15:28;3.65;;;1.60;;
21095;SDS011;10706;49.036;12.112;2024-03-29T09:17:54;2.05;;;1.25;;
21095;SDS011;10706;49.036;12.112;2024-03-29T09:20:20;3.35;;;1.50;;
21095;SDS011;10706;49.036;12.112;2024-03-29T09:22:46;4.35;;;1.52;;
21095;SDS011;10706;49.036;12.112;2024-03-29T09:25:14;4.68;;;1.67;;
21095;SDS011;10706;49.036;12.112;2024-03-29T09:27:40;4.03;;;1.48;;
21095;SDS011;10706;49.036;12.112;2024-03-29T09:30:08;2.17;;;1.42;;
21095;SDS011;10706;49.036;12.112;2024-03-29T09:32:36;4.63;;;1.88;;
21095;SDS011;10706;49.036;12.112;2024-03-29T09:35:02;2.78;;;1.38;;
21095;SDS011;10706;49.036;12.112;2024-03-29T09:37:28;3.55;;;1.52;;
21095;SDS011;10706;49.036;12.112;2024-03-29T09:39:54;4.88;;;1.63;;
21095;SDS011;10706;49.036;12.112;2024-03-29T09:42:22;3.40;;;1.60;;
21095;SDS011;10706;49.036;12.112;2024-03-29T09:44:51;3.72;;;1.80;;
21095;SDS011;10706;49.036;12.112;2024-03-29T09:47:19;3.72;;;1.65;;
21095;SDS011;10706;49.036;12.112;2024-03-29T09:49:47;3.70;;;1.85;;
21095;SDS011;10706;49.036;12.112;2024-03-29T09:52:15;2.88;;;1.38;;
21095;SDS011;10706;49.036;12.112;2024-03-29T09:54:41;4.03;;;1.52;;
21095;SDS011;10706;49.036;12.112;2024-03-29T09:57:08;2.50;;;1.40;;
21095;SDS011;10706;49.036;12.112;2024-03-29T09:59:36;1.13;;;0.95;;
21095;SDS011;10706;49.036;12.112;2024-03-29T10:02:04;2.58;;;1.30;;
21095;SDS011;10706;49.036;12.112;2024-03-29T10:04:39;2.17;;;1.30;;
21095;SDS011;10706;49.036;12.112;2024-03-29T10:07:07;1.85;;;1.20;;
21095;SDS011;10706;49.036;12.112;2024-03-29T10:09:33;4.78;;;1.30;;
21095;SDS011;10706;49.036;12.112;2024-03-29T10:12:01;1.80;;;1.20;;
21095;SDS011;10706;49.036;12.112;2024-03-29T10:14:29;3.13;;;1.50;;
21095;SDS011;10706;49.036;12.112;2024-03-29T10:16:59;3.17;;;1.65;;
21095;SDS011;10706;49.036;12.112;2024-03-29T10:19:25;5.72;;;2.13;;
21095;SDS011;10706;49.036;12.112;2024-03-29T10:21:51;3.85;;;1.10;;
21095;SDS011;10706;49.036;12.112;2024-03-29T10:24:17;1.50;;;1.10;;
21095;SDS011;10706;49.036;12.112;2024-03-29T10:26:44;2.88;;;1.30;;
21095;SDS011;10706;49.036;12.112;2024-03-29T10:29:10;1.88;;;1.10;;
21095;SDS011;10706;49.036;12.112;2024-03-29T10:31:37;3.50;;;1.20;;
21095;SDS011;10706;49.036;12.112;2024-03-29T10:34:03;2.45;;;1.23;;
21095;SDS011;10706;49.036;12.112;2024-03-29T10:36:30;0.80;;;0.80;;
21095;SDS011;10706;49.036;12.112;2024-03-29T10:39:10;6.07;;;1.30;;
21095;SDS011;10706;49.036;12.112;2024-03-29T10:41:38;1.80;;;1.25;;
21095;SDS011;10706;49.036;12.112;2024-03-29T10:44:09;1.05;;;0.95;;
21095;SDS011;10706;49.036;12.112;2024-03-29T10:46:40;2.85;;;1.15;;
21095;SDS011;10706;49.036;12.112;2024-03-29T10:49:07;2.00;;;1.25;;
21095;SDS011;10706;49.036;12.112;2024-03-29T10:51:36;1.55;;;1.10;;
21095;SDS011;10706;49.036;12.112;2024-03-29T10:54:04;2.15;;;1.10;;
21095;SDS011;10706;49.036;12.112;2024-03-29T10:56:34;1.23;;;0.90;;
21095;SDS011;10706;49.036;12.112;2024-03-29T10:59:12;2.97;;;1.10;;
21095;SDS011;10706;49.036;12.112;2024-03-29T11:01:48;3.40;;;1.13;;
21095;SDS011;10706;49.036;12.112;2024-03-29T11:04:26;1.40;;;1.20;;
21095;SDS011;10706;49.036;12.112;2024-03-29T11:06:58;3.10;;;0.88;;
21095;SDS011;10706;49.036;12.112;2024-03-29T11:09:31;1.55;;;1.17;;
21095;SDS011;10706;49.036;12.112;2024-03-29T11:11:58;3.08;;;1.15;;
21095;SDS011;10706;49.036;12.112;2024-03-29T11:14:30;2.00;;;1.23;;
21095;SDS011;10706;49.036;12.112;2024-03-29T11:17:05;1.35;;;0.90;;
21095;SDS011;10706;49.036;12.112;2024-03-29T11:19:32;2.50;;;1.10;;
21095;SDS011;10706;49.036;12.112;2024-03-29T11:21:59;1.33;;;1.23;;
21095;SDS011;10706;49.036;12.112;2024-03-29T11:24:26;1.50;;;1.13;;
21095;SDS011;10706;49.036;12.112;2024-03-29T11:26:53;2.80;;;1.25;;
21095;SDS011;10706;49.036;12.112;2024-03-29T11:29:19;3.42;;;1.33;;
21095;SDS011;10706;49.036;12.112;2024-03-29T11:31:56;1.70;;;0.93;;
21095;SDS011;10706;49.036;12.112;2024-03-29T11:34:22;1.55;;;1.10;;
21095;SDS011;10706;49.036;12.112;2024-03-29T11:36:49;1.58;;;0.95;;
21095;SDS011;10706;49.036;12.112;2024-03-29T11:39:22;1.55;;;1.08;;
21095;SDS011;10706;49.036;12.112;2024-03-29T11:41:48;4.38;;;1.38;;
21095;SDS011;10706;49.036;12.112;2024-03-29T11:44:15;2.70;;;1.35;;
21095;SDS011;10706;49.036;12.112;2024-03-29T11:46:44;3.55;;;1.00;;
21095;SDS011;10706;49.036;12.112;2024-03-29T11:49:11;1.27;;;1.05;;
21095;SDS011;10706;49.036;12.112;2024-03-29T11:51:38;1.75;;;1.20;;
21095;SDS011;10706;49.036;12.112;2024-03-29T11:54:06;1.83;;;1.05;;
21095;SDS011;10706;49.036;12.112;2024-03-29T11:56:32;3.40;;;1.25;;
21095;SDS011;10706;49.036;12.112;2024-03-29T11:58:58;2.35;;;1.20;;
21095;SDS011;10706;49.036;12.112;2024-03-29T12:01:26;2.33;;;1.17;;
21095;SDS011;10706;49.036;12.112;2024-03-29T12:03:54;2.60;;;1.20;;
21095;SDS011;10706;49.036;12.112;2024-03-29T12:06:20;1.83;;;1.20;;
21095;SDS011;10706;49.036;12.112;2024-03-29T12:08:45;3.83;;;1.10;;
21095;SDS011;10706;49.036;12.112;2024-03-29T12:11:13;1.27;;;1.05;;
21095;SDS011;10706;49.036;12.112;2024-03-29T12:13:39;2.90;;;1.15;;
21095;SDS011;10706;49.036;12.112;2024-03-29T12:16:05;6.10;;;1.50;;
21095;SDS011;10706;49.036;12.112;2024-03-29T12:18:33;0.95;;;0.85;;
21095;SDS011;10706;49.036;12.112;2024-03-29T12:21:00;1.75;;;0.98;;
21095;SDS011;10706;49.036;12.112;2024-03-29T12:23:26;4.50;;;1.20;;
21095;SDS011;10706;49.036;12.112;2024-03-29T12:25:56;2.05;;;1.00;;
21095;SDS011;10706;49.036;12.112;2024-03-29T12:28:23;1.88;;;0.98;;
21095;SDS011;10706;49.036;12.112;2024-03-29T12:30:50;2.47;;;1.00;;
21095;SDS011;10706;49.036;12.112;2024-03-29T12:33:19;2.63;;;1.02;;
21095;SDS011;10706;49.036;12.112;2024-03-29T12:35:46;1.98;;;1.40;;
21095;SDS011;10706;49.036;12.112;2024-03-29T12:38:20;2.30;;;1.00;;
21095;SDS011;10706;49.036;12.112;2024-03-29T12:40:48;3.13;;;1.08;;
21095;SDS011;10706;49.036;12.112;2024-03-29T12:43:23;2.33;;;1.10;;
21095;SDS011;10706;49.036;12.112;2024-03-29T12:45:50;2.75;;;1.08;;
21095;SDS011;10706;49.036;12.112;2024-03-29T12:48:20;2.85;;;0.95;;
21095;SDS011;10706;49.036;12.112;2024-03-29T12:50:50;3.90;;;1.27;;
21095;SDS011;10706;49.036;12.112;2024-03-29T12:53:17;1.75;;;0.80;;
21095;SDS011;10706;49.036;12.112;2024-03-29T12:55:43;1.80;;;1.00;;
21095;SDS011;10706;49.036;12.112;2024-03-29T12:58:11;2.47;;;1.00;;
21095;SDS011;10706;49.036;12.112;2024-03-29T13:00:38;1.88;;;0.85;;
21095;SDS011;10706;49.036;12.112;2024-03-29T13:03:07;1.38;;;0.70;;
21095;SDS011;10706;49.036;12.112;2024-03-29T13:05:34;1.48;;;0.90;;
21095;SDS011;10706;49.036;12.112;2024-03-29T13:08:05;2.28;;;1.05;;
21095;SDS011;10706;49.036;12.112;2024-03-29T13:10:40;2.78;;;1.15;;
21095;SDS011;10706;49.036;12.112;2024-03-29T13:13:07;1.77;;;0.77;;
21095;SDS011;10706;49.036;12.112;2024-03-29T13:15:34;1.50;;;0.90;;
21095;SDS011;10706;49.036;12.112;2024-03-29T13:18:02;1.42;;;1.05;;
21095;SDS011;10706;49.036;12.112;2024-03-29T13:20:29;2.72;;;1.20;;
21095;SDS011;10706;49.036;12.112;2024-03-29T13:22:57;1.85;;;0.85;;
21095;SDS011;10706;49.036;12.112;2024-03-29T13:25:23;1.80;;;1.00;;
21095;SDS011;10706;49.036;12.112;2024-03-29T13:27:50;6.57;;;2.00;;
21095;SDS011;10706;49.036;12.112;2024-03-29T13:30:22;2.83;;;0.90;;
21095;SDS011;10706;49.036;12.112;2024-03-29T13:32:50;1.65;;;0.90;;
21095;SDS011;10706;49.036;12.112;2024-03-29T13:35:20;3.17;;;1.02;;
21095;SDS011;10706;49.036;12.112;2024-03-29T13:37:52;2.40;;;1.10;;
21095;SDS011;10706;49.036;12.112;2024-03-29T13:40:22;2.15;;;0.90;;
21095;SDS011;10706;49.036;12.112;2024-03-29T13:42:51;1.23;;;1.00;;
21095;SDS011;10706;49.036;12.112;2024-03-29T13:45:17;3.95;;;1.10;;
21095;SDS011;10706;49.036;12.112;2024-03-29T13:47:44;1.35;;;1.00;;
21095;SDS011;10706;49.036;12.112;2024-03-29T13:50:13;1.92;;;1.13;;
21095;SDS011;10706;49.036;12.112;2024-03-29T13:52:40;2.25;;;1.00;;
21095;SDS011;10706;49.036;12.112;2024-03-29T13:55:06;1.70;;;1.00;;
21095;SDS011;10706;49.036;12.112;2024-03-29T13:57:32;1.20;;;1.05;;
21095;SDS011;10706;49.036;12.112;2024-03-29T13:59:58;1.88;;;0.85;;
21095;SDS011;10706;49.036;12.112;2024-03-29T14:02:25;1.15;;;0.65;;
21095;SDS011;10706;49.036;12.112;2024-03-29T14:04:52;2.10;;;0.90;;
21095;SDS011;10706;49.036;12.112;2024-03-29T14:07:19;2.97;;;1.10;;
21095;SDS011;10706;49.036;12.112;2024-03-29T14:09:45;1.20;;;0.90;;
21095;SDS011;10706;49.036;12.112;2024-03-29T14:12:12;2.35;;;0.93;;
21095;SDS011;10706;49.036;12.112;2024-03-29T14:14:39;1.10;;;1.00;;
21095;SDS011;10706;49.036;12.112;2024-03-29T14:17:08;1.70;;;0.80;;
21095;SDS011;10706;49.036;12.112;2024-03-29T14:19:38;1.58;;;0.80;;
21095;SDS011;10706;49.036;12.112;2024-03-29T14:22:04;1.52;;;0.77;;
21095;SDS011;10706;49.036;12.112;2024-03-29T14:24:31;2.67;;;0.95;;
21095;SDS011;10706;49.036;12.112;2024-03-29T14:27:01;1.23;;;0.80;;
21095;SDS011;10706;49.036;12.112;2024-03-29T14:29:31;0.95;;;0.77;;
21095;SDS011;10706;49.036;12.112;2024-03-29T14:31:58;1.77;;;1.00;;
21095;SDS011;10706;49.036;12.112;2024-03-29T14:34:24;1.42;;;0.80;;